createdAt,value
2022-08-27T03:58:49.411Z,51.86
2022-08-27T03:59:47.791Z,51.67
2022-08-27T04:00:48.781Z,52.15
2022-08-27T04:01:49.441Z,51.76
2022-08-27T04:02:49.477Z,52.64
2022-08-27T04:03:48.773Z,52.73
2022-08-27T04:04:49.387Z,52.15
2022-08-27T04:05:47.758Z,52.34
2022-08-27T04:06:49.381Z,52.25
2022-08-27T04:07:49.393Z,52.34
2022-08-27T04:08:47.760Z,52.34
2022-08-27T04:09:47.747Z,52.34
2022-08-27T04:10:49.377Z,52.34
2022-08-27T04:11:47.749Z,52.34
2022-08-27T04:12:48.897Z,52.44
2022-08-27T04:13:47.746Z,52.25
2022-08-27T04:14:47.748Z,52.34
2022-08-27T04:15:47.791Z,52.83
2022-08-27T04:16:47.766Z,52.54
2022-08-27T04:17:49.412Z,52.83
2022-08-27T04:18:47.745Z,52.44
2022-08-27T04:19:47.739Z,52.34
2022-08-27T04:20:49.421Z,52.73
2022-08-27T04:21:47.741Z,52.83
2022-08-27T04:22:47.738Z,52.83
2022-08-27T04:23:48.898Z,52.34
2022-08-27T04:24:47.741Z,52.73
2022-08-27T04:25:47.743Z,52.83
2022-08-27T04:26:47.750Z,52.93
2022-08-27T04:27:47.761Z,52.73
2022-08-27T04:28:48.980Z,52.93
2022-08-27T04:29:49.423Z,52.34
2022-08-27T04:30:49.430Z,52.37
2022-08-27T04:31:49.395Z,52.47
2022-08-27T04:32:49.406Z,52.86
2022-08-27T04:33:50.644Z,52.83
2022-08-27T04:34:49.423Z,52.56
2022-08-27T04:35:49.407Z,52.47
2022-08-27T04:36:47.734Z,52.54
2022-08-27T04:37:47.751Z,52.37
2022-08-27T04:38:47.742Z,52.54
2022-08-27T04:39:50.357Z,52.95
2022-08-27T04:40:49.471Z,52.86
2022-08-27T04:41:49.411Z,52.47
2022-08-27T04:42:49.483Z,52.56
2022-08-27T04:43:49.427Z,52.37
2022-08-27T04:44:49.416Z,52.56
2022-08-27T04:45:47.748Z,52.47
2022-08-27T04:46:49.237Z,52.37
2022-08-27T04:47:49.426Z,52.47
2022-08-27T04:48:49.446Z,52.28
2022-08-27T04:49:47.741Z,52.37
2022-08-27T04:50:47.758Z,52.37
2022-08-27T04:51:47.752Z,52.47
2022-08-27T04:52:47.752Z,52.47
2022-08-27T04:53:49.437Z,52.47
2022-08-27T04:54:47.781Z,52.28
2022-08-27T04:55:47.749Z,52.47
2022-08-27T04:56:47.777Z,52.47
2022-08-27T04:57:47.756Z,52.47
2022-08-27T04:58:47.741Z,52.37
2022-08-27T04:59:49.445Z,52.47
2022-08-27T05:00:47.752Z,52.56
2022-08-27T05:01:49.482Z,52.37
2022-08-27T05:02:49.436Z,52.37
2022-08-27T05:03:49.432Z,52.47
2022-08-27T05:04:49.508Z,52.08
2022-08-27T05:05:49.441Z,52.28
2022-08-27T05:06:49.431Z,52.11
2022-08-27T05:07:49.454Z,52.28
2022-08-27T05:08:49.449Z,51.98
2022-08-27T05:09:49.450Z,51.98
2022-08-27T05:10:49.463Z,52.18
2022-08-27T05:11:49.430Z,52.59
2022-08-27T05:12:50.086Z,52.11
2022-08-27T05:13:49.436Z,52.66
2022-08-27T05:14:49.465Z,52.11
2022-08-27T05:15:49.538Z,52.01
2022-08-27T05:16:49.448Z,52.78
2022-08-27T05:17:49.488Z,52.66
2022-08-27T05:18:49.457Z,52.69
2022-08-27T05:19:49.460Z,52.69
2022-08-27T05:20:49.468Z,52.01
2022-08-27T05:21:49.487Z,52.69
2022-08-27T05:22:49.439Z,52.69
2022-08-27T05:23:49.473Z,52.01
2022-08-27T05:24:50.444Z,52.69
2022-08-27T05:25:49.452Z,51.72
2022-08-27T05:26:47.824Z,52.59
2022-08-27T05:27:47.746Z,52.69
2022-08-27T05:28:49.473Z,51.91
2022-08-27T05:29:47.768Z,52.40
2022-08-27T05:30:52.402Z,52.69
2022-08-27T05:31:49.465Z,52.69
2022-08-27T05:32:47.757Z,52.78
2022-08-27T05:33:49.469Z,52.40
2022-08-27T05:34:49.469Z,52.88
2022-08-27T05:35:48.755Z,51.91
2022-08-27T05:36:49.151Z,52.78
2022-08-27T05:37:49.483Z,52.78
2022-08-27T05:38:49.476Z,52.40
2022-08-27T05:39:48.982Z,52.78
2022-08-27T05:40:47.751Z,52.40
2022-08-27T05:41:49.464Z,52.40
2022-08-27T05:42:50.178Z,52.40
2022-08-27T05:43:50.688Z,52.40
2022-08-27T05:44:47.749Z,51.81
2022-08-27T05:45:47.763Z,52.50
2022-08-27T05:46:47.741Z,52.30
2022-08-27T05:47:47.749Z,51.81
2022-08-27T05:48:49.490Z,52.50
2022-08-27T05:49:47.759Z,52.50
2022-08-27T05:50:47.754Z,52.88
2022-08-27T05:51:47.752Z,52.30
2022-08-27T05:52:47.783Z,52.30
2022-08-27T05:53:49.017Z,52.40
2022-08-27T05:54:48.754Z,52.50
2022-08-27T05:55:47.750Z,52.50
2022-08-27T05:56:49.511Z,52.11
2022-08-27T05:57:49.500Z,51.81
2022-08-27T05:58:47.748Z,52.30
2022-08-27T05:59:47.749Z,52.11
2022-08-27T06:00:47.780Z,51.62
2022-08-27T06:01:47.773Z,51.81
2022-08-27T06:02:49.592Z,52.11
2022-08-27T06:03:47.769Z,52.20
2022-08-27T06:04:49.520Z,51.72
2022-08-27T06:05:49.495Z,51.72
2022-08-27T06:06:49.505Z,52.11
2022-08-27T06:07:49.502Z,51.72
2022-08-27T06:08:49.489Z,52.11
2022-08-27T06:09:49.504Z,52.11
2022-08-27T06:10:49.502Z,52.11
2022-08-27T06:11:49.510Z,52.20
2022-08-27T06:12:51.750Z,51.72
2022-08-27T06:13:49.503Z,52.11
2022-08-27T06:14:49.504Z,52.20
2022-08-27T06:15:49.520Z,52.01
2022-08-27T06:16:49.010Z,52.11
2022-08-27T06:17:49.509Z,52.11
2022-08-27T06:18:49.536Z,52.11
2022-08-27T06:19:49.502Z,51.62
2022-08-27T06:20:49.518Z,52.20
2022-08-27T06:22:00.679Z,52.01
2022-08-27T06:22:49.525Z,52.03
2022-08-27T06:23:49.521Z,52.03
2022-08-27T06:24:49.566Z,52.01
2022-08-27T06:25:49.502Z,52.03
2022-08-27T06:26:49.507Z,51.72
2022-08-27T06:27:49.513Z,52.01
2022-08-27T06:28:49.546Z,51.93
2022-08-27T06:29:49.527Z,51.91
2022-08-27T06:30:49.588Z,52.03
2022-08-27T06:31:49.516Z,51.81
2022-08-27T06:32:49.523Z,52.23
2022-08-27T06:33:49.550Z,52.13
2022-08-27T06:34:49.538Z,52.01
2022-08-27T06:35:47.781Z,52.03
2022-08-27T06:36:49.550Z,51.91
2022-08-27T06:37:47.759Z,52.03
2022-08-27T06:38:49.565Z,52.03
2022-08-27T06:39:49.576Z,51.65
2022-08-27T06:40:49.552Z,51.62
2022-08-27T06:41:49.520Z,51.93
2022-08-27T06:42:49.521Z,52.03
2022-08-27T06:43:49.519Z,51.93
2022-08-27T06:44:49.548Z,52.03
2022-08-27T06:45:49.562Z,52.03
2022-08-27T06:46:49.536Z,51.65
2022-08-27T06:47:49.530Z,51.65
2022-08-27T06:48:49.531Z,51.84
2022-08-27T06:49:49.547Z,52.13
2022-08-27T06:50:49.539Z,52.13
2022-08-27T06:51:49.549Z,52.13
2022-08-27T06:52:49.527Z,52.13
2022-08-27T06:53:49.545Z,52.13
2022-08-27T06:54:49.565Z,52.13
2022-08-27T06:55:49.549Z,51.75
2022-08-27T06:56:49.549Z,52.13
2022-08-27T06:57:47.772Z,52.13
2022-08-27T06:58:49.576Z,52.13
2022-08-27T06:59:49.559Z,52.13
2022-08-27T07:00:49.101Z,52.13
2022-08-27T07:01:47.924Z,51.65
2022-08-27T07:02:47.868Z,52.13
2022-08-27T07:03:49.439Z,52.13
2022-08-27T07:04:49.569Z,52.13
2022-08-27T07:05:47.769Z,51.75
2022-08-27T07:06:47.789Z,52.01
2022-08-27T07:07:49.569Z,52.13
2022-08-27T07:08:53.169Z,51.75
2022-08-27T07:09:47.771Z,51.84
2022-08-27T07:10:49.575Z,52.13
2022-08-27T07:11:47.794Z,52.13
2022-08-27T07:12:47.779Z,51.75
2022-08-27T07:13:49.560Z,52.13
2022-08-27T07:14:49.571Z,52.01
2022-08-27T07:15:49.671Z,51.75
2022-08-27T07:16:48.307Z,52.13
2022-08-27T07:17:49.550Z,52.11
2022-08-27T07:18:47.785Z,52.11
2022-08-27T07:19:49.591Z,52.03
2022-08-27T07:20:49.579Z,52.13
2022-08-27T07:21:47.777Z,52.13
2022-08-27T07:22:49.560Z,51.65
2022-08-27T07:23:47.787Z,52.23
2022-08-27T07:24:47.795Z,51.65
2022-08-27T07:25:49.565Z,51.84
2022-08-27T07:26:49.591Z,52.03
2022-08-27T07:27:47.786Z,51.65
2022-08-27T07:28:50.207Z,52.13
2022-08-27T07:29:49.600Z,51.75
2022-08-27T07:30:49.625Z,52.11
2022-08-27T07:31:47.788Z,52.03
2022-08-27T07:32:47.788Z,51.93
2022-08-27T07:33:52.561Z,52.11
2022-08-27T07:34:47.784Z,51.65
2022-08-27T07:35:49.587Z,52.03
2022-08-27T07:36:49.587Z,52.03
2022-08-27T07:37:47.789Z,51.93
2022-08-27T07:38:48.445Z,52.03
2022-08-27T07:39:49.678Z,52.01
2022-08-27T07:40:49.589Z,51.62
2022-08-27T07:41:49.590Z,52.01
2022-08-27T07:42:49.616Z,51.81
2022-08-27T07:43:49.582Z,51.65
2022-08-27T07:44:49.605Z,51.93
2022-08-27T07:45:49.657Z,52.01
2022-08-27T07:46:49.683Z,51.84
2022-08-27T07:47:49.584Z,52.01
2022-08-27T07:48:49.589Z,52.11
2022-08-27T07:49:49.616Z,52.11
2022-08-27T07:50:49.590Z,52.11
2022-08-27T07:51:49.603Z,52.20
2022-08-27T07:52:49.605Z,52.11
2022-08-27T07:53:49.591Z,52.20
2022-08-27T07:54:49.587Z,51.75
2022-08-27T07:55:49.604Z,52.11
2022-08-27T07:56:55.018Z,52.11
2022-08-27T07:57:49.611Z,51.84
2022-08-27T07:58:49.595Z,52.11
2022-08-27T07:59:49.599Z,52.11
2022-08-27T08:00:49.695Z,51.62
2022-08-27T08:01:49.680Z,52.13
2022-08-27T08:02:49.701Z,52.01
2022-08-27T08:03:49.619Z,52.23
2022-08-27T08:04:47.810Z,51.65
2022-08-27T08:05:49.613Z,52.13
2022-08-27T08:06:47.828Z,52.13
2022-08-27T08:07:49.640Z,51.75
2022-08-27T08:08:47.796Z,52.23
2022-08-27T08:09:47.816Z,52.03
2022-08-27T08:10:49.638Z,52.03
2022-08-27T08:11:47.794Z,51.72
2022-08-27T08:12:49.618Z,52.03
2022-08-27T08:13:49.634Z,52.13
2022-08-27T08:14:49.616Z,52.23
2022-08-27T08:15:47.803Z,52.13
2022-08-27T08:16:49.776Z,52.13
2022-08-27T08:17:49.623Z,52.03
2022-08-27T08:18:49.632Z,52.11
2022-08-27T08:20:08.545Z,52.13
2022-08-27T08:20:58.203Z,51.75
2022-08-27T08:21:52.063Z,52.23
2022-08-27T08:22:49.617Z,51.55
2022-08-27T08:23:49.639Z,52.13
2022-08-27T08:24:49.622Z,51.65
2022-08-27T08:25:49.622Z,52.13
2022-08-27T08:26:49.646Z,52.03
2022-08-27T08:27:49.635Z,52.23
2022-08-27T08:28:47.804Z,52.23
2022-08-27T08:29:47.802Z,52.23
2022-08-27T08:30:47.873Z,52.13
2022-08-27T08:31:50.272Z,52.23
2022-08-27T08:32:47.800Z,52.23
2022-08-27T08:33:49.639Z,52.13
2022-08-27T08:34:47.800Z,52.03
2022-08-27T08:35:47.803Z,52.23
2022-08-27T08:36:54.651Z,51.65
2022-08-27T08:37:47.796Z,51.75
2022-08-27T08:38:47.841Z,52.13
2022-08-27T08:39:49.209Z,51.75
2022-08-27T08:40:47.804Z,52.03
2022-08-27T08:41:47.800Z,52.13
2022-08-27T08:42:50.545Z,51.75
2022-08-27T08:43:49.662Z,51.65
2022-08-27T08:44:47.806Z,52.03
2022-08-27T08:45:47.841Z,52.13
2022-08-27T08:46:47.821Z,52.13
2022-08-27T08:47:49.661Z,52.13
2022-08-27T08:48:47.837Z,52.23
2022-08-27T08:49:47.820Z,52.03
2022-08-27T08:50:49.656Z,51.75
2022-08-27T08:51:47.822Z,52.13
2022-08-27T08:52:49.671Z,52.03
2022-08-27T08:53:49.680Z,51.93
2022-08-27T08:54:47.808Z,51.84
2022-08-27T08:55:49.643Z,52.03
2022-08-27T08:56:54.363Z,52.03
2022-08-27T08:57:49.676Z,51.93
2022-08-27T08:58:47.861Z,52.13
2022-08-27T08:59:49.655Z,51.75
2022-08-27T09:00:47.816Z,52.03
2022-08-27T09:01:49.729Z,52.15
2022-08-27T09:02:49.677Z,51.75
2022-08-27T09:03:47.872Z,52.15
2022-08-27T09:04:49.671Z,51.77
2022-08-27T09:05:47.823Z,51.77
2022-08-27T09:06:49.697Z,52.06
2022-08-27T09:07:47.816Z,52.15
2022-08-27T09:08:49.656Z,51.93
2022-08-27T09:09:47.817Z,51.67
2022-08-27T09:10:49.687Z,51.67
2022-08-27T09:11:47.816Z,51.77
2022-08-27T09:12:47.823Z,51.97
2022-08-27T09:13:49.668Z,51.97
2022-08-27T09:14:49.698Z,52.06
2022-08-27T09:15:49.669Z,52.06
2022-08-27T09:16:49.809Z,52.15
2022-08-27T09:17:49.671Z,51.97
2022-08-27T09:18:52.357Z,51.87
2022-08-27T09:19:52.311Z,51.77
2022-08-27T09:20:49.673Z,51.89
2022-08-27T09:21:49.675Z,51.77
2022-08-27T09:22:49.679Z,51.79
2022-08-27T09:23:49.685Z,51.60
2022-08-27T09:24:49.710Z,51.99
2022-08-27T09:25:49.678Z,52.19
2022-08-27T09:26:49.689Z,51.50
2022-08-27T09:27:47.828Z,52.19
2022-08-27T09:28:49.742Z,51.50
2022-08-27T09:29:49.682Z,51.99
2022-08-27T09:30:49.732Z,51.99
2022-08-27T09:31:49.687Z,52.19
2022-08-27T09:32:49.699Z,51.60
2022-08-27T09:33:56.571Z,51.89
2022-08-27T09:34:47.836Z,51.79
2022-08-27T09:35:47.838Z,51.60
2022-08-27T09:36:49.703Z,51.79
2022-08-27T09:37:49.722Z,51.89
2022-08-27T09:38:49.717Z,51.89
2022-08-27T09:39:47.846Z,51.89
2022-08-27T09:40:49.758Z,51.60
2022-08-27T09:41:47.847Z,51.60
2022-08-27T09:42:49.724Z,51.99
2022-08-27T09:43:47.859Z,51.70
2022-08-27T09:44:53.509Z,51.70
2022-08-27T09:45:49.816Z,51.70
2022-08-27T09:46:49.704Z,51.70
2022-08-27T09:47:49.725Z,51.70
2022-08-27T09:48:49.698Z,51.50
2022-08-27T09:49:49.728Z,51.60
2022-08-27T09:50:49.724Z,51.82
2022-08-27T09:51:49.706Z,51.70
2022-08-27T09:52:49.715Z,51.79
2022-08-27T09:53:50.200Z,51.99
2022-08-27T09:54:49.708Z,51.89
2022-08-27T09:55:49.724Z,51.60
2022-08-27T09:56:49.715Z,51.89
2022-08-27T09:57:47.859Z,51.60
2022-08-27T09:58:49.725Z,51.99
2022-08-27T09:59:47.856Z,51.89
2022-08-27T10:00:49.752Z,51.70
2022-08-27T10:01:49.725Z,51.60
2022-08-27T10:13:01.944Z,51.70
2022-08-27T10:14:00.332Z,51.50
2022-08-27T10:15:01.933Z,51.79
2022-08-27T10:16:00.326Z,51.50
2022-08-27T10:17:01.935Z,51.70
2022-08-27T10:18:01.942Z,51.70
2022-08-27T10:19:00.330Z,51.60
2022-08-27T10:20:01.922Z,51.70
2022-08-27T10:21:05.387Z,51.70
2022-08-27T10:22:00.320Z,51.79
2022-08-27T10:23:01.952Z,51.89
2022-08-27T10:24:00.320Z,51.70
2022-08-27T10:25:00.339Z,51.31
2022-08-27T10:26:00.345Z,51.70
2022-08-27T10:27:00.323Z,51.31
2022-08-27T10:28:00.340Z,51.60
2022-08-27T10:29:01.953Z,51.89
2022-08-27T10:30:01.933Z,51.89
2022-08-27T10:31:01.952Z,51.70
2022-08-27T10:32:03.010Z,51.70
2022-08-27T10:33:03.942Z,51.50
2022-08-27T10:34:01.454Z,51.79
2022-08-27T10:35:01.983Z,51.89
2022-08-27T10:36:01.962Z,51.50
2022-08-27T10:37:05.303Z,51.50
2022-08-27T10:38:01.952Z,51.60
2022-08-27T10:39:01.972Z,51.70
2022-08-27T10:40:02.007Z,51.99
2022-08-27T10:41:01.943Z,51.79
2022-08-27T10:42:01.975Z,51.89
2022-08-27T10:43:00.337Z,51.79
2022-08-27T10:44:00.335Z,51.89
2022-08-27T10:45:00.338Z,51.50
2022-08-27T10:46:00.376Z,51.89
2022-08-27T10:47:01.972Z,51.60
2022-08-27T10:48:08.889Z,51.89
2022-08-27T10:49:00.338Z,51.89
2022-08-27T10:50:00.342Z,51.60
2022-08-27T10:51:00.336Z,51.31
2022-08-27T10:52:06.422Z,51.70
2022-08-27T10:53:00.367Z,51.79
2022-08-27T10:54:00.355Z,51.82
2022-08-27T10:55:00.351Z,51.82
2022-08-27T10:56:01.998Z,51.60
2022-08-27T10:57:24.607Z,51.70
2022-08-27T10:58:01.311Z,51.92
2022-08-27T10:59:00.360Z,51.72
2022-08-27T11:00:00.348Z,51.62
2022-08-27T11:01:00.461Z,51.92
2022-08-27T11:02:02.029Z,51.72
2022-08-27T11:03:01.970Z,51.72
2022-08-27T11:04:01.982Z,51.82
2022-08-27T11:05:01.977Z,51.72
2022-08-27T11:06:02.988Z,51.72
2022-08-27T11:07:01.985Z,51.72
2022-08-27T11:08:01.993Z,51.72
2022-08-27T11:09:07.862Z,51.72
2022-08-27T11:10:01.975Z,51.62
2022-08-27T11:11:26.081Z,51.82
2022-08-27T11:12:17.375Z,51.55
2022-08-27T11:13:01.983Z,51.53
2022-08-27T11:14:01.982Z,51.65
2022-08-27T11:15:01.985Z,51.72
2022-08-27T11:16:02.074Z,51.94
2022-08-27T11:17:02.037Z,51.84
2022-08-27T11:18:02.002Z,51.84
2022-08-27T11:19:01.982Z,51.45
2022-08-27T11:20:01.992Z,51.75
2022-08-27T11:21:01.986Z,51.55
2022-08-27T11:22:02.003Z,51.84
2022-08-27T11:23:01.988Z,51.84
2022-08-27T11:24:01.993Z,51.55
2022-08-27T11:25:01.994Z,51.75
2022-08-27T11:26:02.670Z,51.75
2022-08-27T11:27:02.006Z,51.75
2022-08-27T11:28:00.387Z,51.45
2022-08-27T11:29:00.394Z,51.84
2022-08-27T11:30:00.671Z,51.45
2022-08-27T11:31:00.415Z,51.55
2022-08-27T11:32:02.127Z,51.84
2022-08-27T11:33:00.406Z,51.75
2022-08-27T11:34:02.012Z,51.45
2022-08-27T11:35:00.401Z,51.55
2022-08-27T11:36:00.393Z,51.75
2022-08-27T11:37:02.024Z,51.75
2022-08-27T11:38:00.419Z,51.26
2022-08-27T11:39:00.398Z,51.75
2022-08-27T11:40:02.053Z,51.45
2022-08-27T11:41:02.023Z,51.45
2022-08-27T11:42:00.419Z,51.26
2022-08-27T11:43:02.038Z,51.45
2022-08-27T11:44:00.413Z,51.17
2022-08-27T11:45:02.013Z,51.17
2022-08-27T11:46:00.417Z,51.45
2022-08-27T11:47:00.487Z,51.45
2022-08-27T11:48:02.046Z,51.45
2022-08-27T11:49:02.013Z,51.75
2022-08-27T11:50:02.020Z,51.45
2022-08-27T11:51:00.421Z,51.36
2022-08-27T11:52:00.431Z,51.36
2022-08-27T11:53:01.548Z,51.45
2022-08-27T11:54:01.416Z,51.45
2022-08-27T11:55:02.047Z,51.07
2022-08-27T11:56:01.420Z,51.26
2022-08-27T11:57:00.434Z,51.36
2022-08-27T11:58:02.041Z,51.17
2022-08-27T11:59:02.037Z,51.45
2022-08-27T12:00:00.434Z,51.36
2022-08-27T12:01:04.531Z,51.45
2022-08-27T12:02:00.438Z,51.07
2022-08-27T12:03:00.540Z,51.45
2022-08-27T12:04:02.082Z,51.39
2022-08-27T12:05:02.052Z,51.07
2022-08-27T12:06:02.045Z,51.36
2022-08-27T12:07:02.041Z,51.48
2022-08-27T12:08:02.054Z,51.45
2022-08-27T12:09:02.040Z,51.45
2022-08-27T12:10:02.046Z,51.07
2022-08-27T12:11:02.039Z,51.45
2022-08-27T12:12:02.040Z,51.09
2022-08-27T12:13:02.039Z,51.26
2022-08-27T12:14:02.042Z,51.36
2022-08-27T12:15:02.067Z,51.45
2022-08-27T12:16:02.182Z,51.36
2022-08-27T12:17:02.079Z,51.45
2022-08-27T12:18:02.045Z,51.36
2022-08-27T12:19:02.053Z,51.07
2022-08-27T12:20:02.113Z,51.55
2022-08-27T12:21:02.061Z,51.36
2022-08-27T12:22:02.052Z,51.36
2022-08-27T12:23:02.048Z,51.45
2022-08-27T12:24:02.087Z,51.45
2022-08-27T12:25:02.055Z,51.48
2022-08-27T12:26:02.095Z,51.45
2022-08-27T12:27:02.067Z,51.36
2022-08-27T12:28:02.057Z,50.97
2022-08-27T12:29:02.053Z,51.45
2022-08-27T12:30:02.068Z,51.55
2022-08-27T12:31:02.072Z,51.55
2022-08-27T12:32:02.117Z,51.36
2022-08-27T12:33:02.077Z,51.45
2022-08-27T12:34:02.068Z,51.36
2022-08-27T12:35:02.079Z,50.99
2022-08-27T12:36:02.085Z,50.97
2022-08-27T12:37:02.079Z,51.58
2022-08-27T12:38:02.082Z,51.58
2022-08-27T12:39:02.060Z,51.55
2022-08-27T12:40:02.142Z,50.99
2022-08-27T12:41:02.073Z,51.45
2022-08-27T12:42:02.068Z,51.55
2022-08-27T12:43:02.089Z,51.67
2022-08-27T12:44:02.068Z,51.48
2022-08-27T12:45:02.074Z,51.48
2022-08-27T12:46:02.075Z,51.58
2022-08-27T12:47:02.189Z,50.99
2022-08-27T12:48:02.098Z,51.45
2022-08-27T12:49:10.078Z,50.99
2022-08-27T12:50:02.089Z,50.90
2022-08-27T12:51:02.082Z,51.58
2022-08-27T12:52:02.100Z,51.65
2022-08-27T12:53:02.095Z,51.67
2022-08-27T12:54:02.099Z,51.67
2022-08-27T12:55:02.101Z,51.58
2022-08-27T12:56:02.093Z,51.55
2022-08-27T12:57:00.511Z,51.67
2022-08-27T12:58:00.528Z,50.90
2022-08-27T12:59:00.510Z,51.67
2022-08-27T13:00:02.113Z,51.65
2022-08-27T13:01:00.646Z,51.67
2022-08-27T13:02:00.699Z,51.67
2022-08-27T13:03:00.512Z,51.77
2022-08-27T13:04:00.525Z,51.67
2022-08-27T13:05:02.107Z,51.67
2022-08-27T13:06:01.615Z,51.67
2022-08-27T13:07:00.530Z,51.67
2022-08-27T13:08:00.540Z,50.99
2022-08-27T13:09:00.538Z,50.99
2022-08-27T13:10:00.527Z,51.09
2022-08-27T13:11:02.128Z,51.77
2022-08-27T13:12:00.541Z,50.90
2022-08-27T13:13:00.537Z,51.67
2022-08-27T13:14:02.121Z,51.67
2022-08-27T13:15:00.536Z,51.77
2022-08-27T13:16:02.136Z,51.19
2022-08-27T13:17:00.570Z,51.09
2022-08-27T13:18:02.475Z,51.58
2022-08-27T13:19:00.543Z,51.39
2022-08-27T13:20:00.550Z,51.09
2022-08-27T13:21:02.129Z,51.19
2022-08-27T13:22:02.128Z,50.99
2022-08-27T13:23:00.556Z,51.09
2022-08-27T13:24:02.128Z,50.70
2022-08-27T13:25:01.573Z,51.09
2022-08-27T13:26:02.125Z,50.80
2022-08-27T13:27:00.554Z,51.12
2022-08-27T13:28:00.557Z,50.82
2022-08-27T13:29:03.770Z,50.82
2022-08-27T13:30:02.208Z,50.92
2022-08-27T13:31:01.666Z,51.12
2022-08-27T13:32:00.561Z,50.92
2022-08-27T13:33:02.145Z,50.82
2022-08-27T13:34:02.137Z,51.02
2022-08-27T13:35:01.638Z,50.92
2022-08-27T13:36:00.572Z,50.53
2022-08-27T13:37:02.143Z,50.53
2022-08-27T13:38:00.580Z,50.95
2022-08-27T13:39:02.138Z,50.65
2022-08-27T13:40:02.362Z,50.65
2022-08-27T13:41:02.142Z,50.46
2022-08-27T13:42:02.146Z,50.56
2022-08-27T13:43:02.131Z,50.46
2022-08-27T13:44:02.135Z,50.95
2022-08-27T13:45:02.141Z,50.65
2022-08-27T13:46:02.131Z,50.56
2022-08-27T13:47:02.269Z,50.56
2022-08-27T13:48:02.155Z,50.58
2022-08-27T13:49:02.155Z,50.78
2022-08-27T13:50:02.270Z,50.87
2022-08-27T13:51:02.141Z,50.85
2022-08-27T13:52:00.609Z,50.78
2022-08-27T13:53:02.171Z,50.78
2022-08-27T13:54:02.170Z,50.78
2022-08-27T13:55:02.217Z,50.87
2022-08-27T13:56:02.153Z,50.85
2022-08-27T13:57:02.146Z,50.75
2022-08-27T13:58:02.148Z,50.48
2022-08-27T13:59:02.173Z,50.46
2022-08-27T14:00:02.223Z,50.48
2022-08-27T14:01:02.157Z,50.56
2022-08-27T14:02:02.280Z,50.68
2022-08-27T14:03:02.396Z,50.58
2022-08-27T14:04:00.627Z,50.65
2022-08-27T14:05:00.631Z,50.46
2022-08-27T14:06:00.638Z,50.48
2022-08-27T14:07:00.631Z,50.56
2022-08-27T14:08:02.186Z,50.56
2022-08-27T14:09:00.637Z,50.65
2022-08-27T14:10:02.244Z,50.56
2022-08-27T14:11:02.192Z,50.65
2022-08-27T14:12:02.178Z,50.75
2022-08-27T14:13:02.161Z,50.65
2022-08-27T14:14:02.213Z,50.65
2022-08-27T14:15:02.163Z,50.56
2022-08-27T14:16:02.239Z,50.65
2022-08-27T14:17:02.174Z,50.56
2022-08-27T14:18:02.182Z,50.65
2022-08-27T14:19:02.191Z,50.75
2022-08-27T14:20:02.281Z,50.65
2022-08-27T14:21:02.202Z,50.65
2022-08-27T14:22:02.166Z,50.65
2022-08-27T14:23:02.179Z,50.65
2022-08-27T14:24:02.202Z,50.46
2022-08-27T14:25:02.205Z,50.65
2022-08-27T14:26:01.674Z,50.26
2022-08-27T14:27:00.671Z,50.46
2022-08-27T14:28:00.689Z,50.56
2022-08-27T14:29:02.194Z,50.85
2022-08-27T14:30:02.259Z,50.65
2022-08-27T14:31:02.221Z,50.56
2022-08-27T14:32:00.683Z,51.04
2022-08-27T14:33:00.864Z,50.65
2022-08-27T14:34:00.692Z,50.92
2022-08-27T14:35:02.224Z,50.65
2022-08-27T14:36:00.708Z,50.75
2022-08-27T14:37:00.700Z,50.65
2022-08-27T14:38:00.698Z,50.75
2022-08-27T14:39:00.702Z,50.65
2022-08-27T14:40:02.364Z,50.56
2022-08-27T14:41:00.701Z,50.53
2022-08-27T14:42:00.706Z,50.82
2022-08-27T14:43:00.734Z,50.63
2022-08-27T14:44:01.730Z,50.53
2022-08-27T14:45:00.751Z,50.73
2022-08-27T14:46:01.767Z,50.53
2022-08-27T14:47:00.849Z,50.53
2022-08-27T14:48:02.549Z,50.34
2022-08-27T14:49:00.720Z,50.73
2022-08-27T14:50:02.735Z,50.73
2022-08-27T14:51:02.729Z,50.43
2022-08-27T14:52:00.726Z,50.82
2022-08-27T14:53:02.730Z,50.73
2022-08-27T14:54:00.727Z,50.82
2022-08-27T14:55:02.705Z,50.82
2022-08-27T14:56:02.223Z,50.53
2022-08-27T14:57:02.713Z,50.34
2022-08-27T14:58:02.720Z,50.82
2022-08-27T14:59:02.748Z,50.82
2022-08-27T15:00:02.728Z,50.73
2022-08-27T15:01:02.749Z,50.82
2022-08-27T15:02:02.831Z,50.43
2022-08-27T15:03:00.764Z,50.82
2022-08-27T15:04:02.713Z,50.92
2022-08-27T15:05:03.447Z,50.82
2022-08-27T15:06:02.719Z,50.43
2022-08-27T15:07:02.735Z,50.53
2022-08-27T15:08:02.750Z,50.43
2022-08-27T15:09:00.753Z,50.43
2022-08-27T15:10:02.721Z,50.53
2022-08-27T15:11:00.755Z,50.43
2022-08-27T15:12:02.743Z,50.53
2022-08-27T15:13:02.748Z,50.53
2022-08-27T15:14:02.741Z,50.41
2022-08-27T15:15:00.764Z,50.63
2022-08-27T15:16:02.279Z,50.82
2022-08-27T15:17:02.737Z,50.80
2022-08-27T15:18:02.744Z,50.53
2022-08-27T15:19:02.733Z,50.92
2022-08-27T15:20:02.727Z,50.53
2022-08-27T15:21:02.772Z,50.43
2022-08-27T15:22:00.770Z,50.41
2022-08-27T15:23:02.774Z,50.63
2022-08-27T15:24:02.736Z,50.70
2022-08-27T15:25:03.200Z,50.63
2022-08-27T15:26:00.779Z,50.63
2022-08-27T15:27:02.805Z,50.82
2022-08-27T15:28:02.743Z,51.12
2022-08-27T15:29:06.380Z,50.63
2022-08-27T15:30:02.778Z,50.73
2022-08-27T15:31:02.811Z,50.73
2022-08-27T15:32:02.765Z,51.04
2022-08-27T15:33:00.792Z,51.04
2022-08-27T15:34:00.796Z,50.56
2022-08-27T15:35:00.789Z,50.56
2022-08-27T15:36:04.051Z,50.65
2022-08-27T15:37:02.765Z,50.56
2022-08-27T15:38:00.795Z,50.56
2022-08-27T15:39:02.771Z,50.26
2022-08-27T15:40:01.039Z,50.56
2022-08-27T15:41:00.806Z,50.56
2022-08-27T15:42:06.645Z,50.09
2022-08-27T15:43:02.776Z,50.48
2022-08-27T15:44:00.826Z,50.68
2022-08-27T15:45:02.770Z,50.38
2022-08-27T15:46:02.805Z,50.78
2022-08-27T15:47:02.788Z,50.48
2022-08-27T15:48:02.756Z,50.78
2022-08-27T15:49:02.795Z,50.38
2022-08-27T15:50:02.808Z,50.58
2022-08-27T15:51:02.773Z,50.58
2022-08-27T15:52:02.767Z,50.29
2022-08-27T15:53:02.788Z,50.48
2022-08-27T15:54:02.805Z,50.38
2022-08-27T15:55:02.792Z,50.48
2022-08-27T15:56:01.853Z,50.58
2022-08-27T15:57:02.771Z,50.19
2022-08-27T15:58:02.791Z,50.29
2022-08-27T15:59:02.806Z,50.19
2022-08-27T16:00:02.789Z,50.48
2022-08-27T16:12:27.409Z,50.26
2022-08-27T16:13:15.083Z,50.07
2022-08-27T16:14:14.082Z,50.07
2022-08-27T16:15:14.077Z,49.88
2022-08-27T16:16:15.111Z,50.56
2022-08-27T16:17:15.672Z,50.36
2022-08-27T16:18:14.074Z,50.56
2022-08-27T16:19:16.586Z,50.56
2022-08-27T16:20:15.659Z,50.56
2022-08-27T16:21:15.092Z,50.36
2022-08-27T16:22:15.680Z,50.26
2022-08-27T16:23:14.081Z,50.63
2022-08-27T16:24:16.191Z,50.53
2022-08-27T16:25:18.318Z,50.53
2022-08-27T16:26:15.665Z,50.53
2022-08-27T16:27:15.691Z,50.53
2022-08-27T16:28:14.093Z,50.92
2022-08-27T16:29:15.685Z,50.14
2022-08-27T16:30:14.092Z,51.02
2022-08-27T16:31:15.710Z,51.02
2022-08-27T16:32:14.105Z,51.02
2022-08-27T16:33:15.698Z,50.24
2022-08-27T16:34:15.700Z,50.92
2022-08-27T16:35:15.150Z,50.53
2022-08-27T16:36:15.101Z,50.73
2022-08-27T16:37:15.685Z,50.82
2022-08-27T16:38:15.698Z,50.73
2022-08-27T16:39:15.695Z,50.24
2022-08-27T16:40:15.774Z,50.82
2022-08-27T16:41:15.712Z,50.82
2022-08-27T16:42:15.136Z,50.82
2022-08-27T16:43:15.682Z,50.63
2022-08-27T16:44:15.705Z,50.73
2022-08-27T16:45:15.696Z,50.80
2022-08-27T16:46:15.777Z,50.70
2022-08-27T16:47:15.688Z,50.92
2022-08-27T16:48:15.687Z,50.63
2022-08-27T16:49:15.688Z,50.80
2022-08-27T16:50:22.872Z,50.60
2022-08-27T16:51:15.710Z,50.60
2022-08-27T16:52:15.701Z,50.51
2022-08-27T16:53:15.693Z,50.80
2022-08-27T16:54:15.694Z,51.09
2022-08-27T16:55:15.902Z,51.19
2022-08-27T16:56:15.740Z,51.19
2022-08-27T16:57:15.712Z,50.51
2022-08-27T16:58:15.705Z,50.51
2022-08-27T16:59:15.699Z,50.51
2022-08-27T17:00:15.733Z,50.80
2022-08-27T17:01:15.730Z,50.80
2022-08-27T17:02:15.762Z,50.41
2022-08-27T17:03:15.703Z,50.51
2022-08-27T17:04:23.695Z,50.51
2022-08-27T17:05:34.337Z,50.51
2022-08-27T17:06:14.188Z,50.70
2022-08-27T17:07:14.142Z,50.90
2022-08-27T17:08:14.220Z,50.90
2022-08-27T17:09:15.755Z,50.51
2022-08-27T17:10:15.838Z,50.90
2022-08-27T17:11:15.228Z,50.58
2022-08-27T17:12:15.713Z,50.97